createdAt,value
2022-11-16T00:00:32.273Z,3.03
2022-11-16T00:01:35.100Z,4.18
2022-11-16T00:02:36.759Z,3.30
2022-11-16T00:03:39.504Z,3.80
2022-11-16T00:04:41.107Z,3.72
2022-11-16T00:05:45.033Z,3.53
2022-11-16T00:06:48.981Z,4.47
2022-11-16T00:07:51.572Z,5.85
2022-11-16T00:09:15.001Z,3.67
2022-11-16T00:10:17.891Z,4.75
2022-11-16T00:11:19.509Z,5.10
2022-11-16T00:12:22.048Z,3.20
2022-11-16T00:13:23.587Z,3.97
2022-11-16T00:14:27.777Z,3.88
2022-11-16T00:15:29.366Z,3.65
2022-11-16T00:16:32.106Z,5.07
2022-11-16T00:17:33.740Z,5.13
2022-11-16T00:18:36.379Z,5.28
2022-11-16T00:19:39.020Z,3.80
2022-11-16T00:20:40.742Z,5.32
2022-11-16T00:21:44.701Z,4.22
2022-11-16T00:22:46.368Z,4.38
2022-11-16T00:23:48.957Z,4.60
2022-11-16T00:24:50.550Z,5.28
2022-11-16T00:25:53.249Z,3.67
2022-11-16T00:26:55.414Z,4.15
2022-11-16T00:27:58.183Z,5.07
2022-11-16T00:28:59.771Z,4.50
2022-11-16T00:30:02.302Z,5.00
2022-11-16T00:31:05.665Z,4.18
2022-11-16T00:32:08.179Z,4.47
2022-11-16T00:33:14.300Z,3.95
2022-11-16T00:34:17.313Z,5.20
2022-11-16T00:35:18.829Z,4.28
2022-11-16T00:36:21.407Z,3.47
2022-11-16T00:37:24.273Z,6.32
2022-11-16T00:38:26.915Z,5.85
2022-11-16T00:39:28.484Z,3.70
2022-11-16T00:40:30.984Z,5.15
2022-11-16T00:41:33.578Z,5.07
2022-11-16T00:42:35.134Z,4.45
2022-11-16T00:43:38.423Z,4.43
2022-11-16T00:44:40.001Z,5.38
2022-11-16T00:45:43.270Z,6.10
2022-11-16T00:46:44.930Z,3.92
2022-11-16T00:47:47.488Z,6.63
2022-11-16T00:48:49.038Z,6.68
2022-11-16T00:49:51.556Z,3.65
2022-11-16T00:50:53.147Z,6.28
2022-11-16T00:51:55.685Z,4.43
2022-11-16T00:52:58.592Z,5.47
2022-11-16T00:54:01.593Z,5.47
2022-11-16T00:55:03.367Z,4.93
2022-11-16T00:56:06.414Z,4.93
2022-11-16T00:57:07.985Z,5.32
2022-11-16T00:58:10.685Z,4.47
2022-11-16T00:59:12.289Z,3.40
2022-11-16T01:00:16.046Z,4.55
2022-11-16T01:01:18.257Z,4.78
2022-11-16T01:02:20.843Z,4.70
2022-11-16T01:03:22.385Z,4.40
2022-11-16T01:04:24.964Z,4.82
2022-11-16T01:05:26.570Z,3.63
2022-11-16T01:06:29.146Z,5.35
2022-11-16T01:07:30.785Z,6.07
2022-11-16T01:08:36.349Z,3.97
2022-11-16T01:09:38.177Z,3.85
2022-11-16T01:10:41.530Z,6.18
2022-11-16T01:12:01.658Z,6.38
2022-11-16T01:13:03.222Z,4.35
2022-11-16T01:14:07.384Z,6.10
2022-11-16T01:15:10.211Z,5.13
2022-11-16T01:16:15.350Z,6.03
2022-11-16T01:17:16.934Z,4.70
2022-11-16T01:18:19.471Z,6.22
2022-11-16T01:19:21.005Z,4.38
2022-11-16T01:20:25.341Z,4.40
2022-11-16T01:21:27.301Z,6.63
2022-11-16T01:22:29.818Z,5.65
2022-11-16T01:23:32.812Z,4.75
2022-11-16T01:24:35.384Z,5.70
2022-11-16T01:25:36.948Z,4.95
2022-11-16T01:26:39.525Z,4.82
2022-11-16T01:27:42.089Z,4.38
2022-11-16T01:28:44.780Z,3.78
2022-11-16T01:29:47.356Z,4.93
2022-11-16T01:30:49.010Z,5.63
2022-11-16T01:31:51.565Z,5.32
2022-11-16T01:32:53.265Z,5.10
2022-11-16T01:33:55.896Z,6.10
2022-11-16T01:34:57.450Z,4.43
2022-11-16T01:36:00.062Z,4.50
2022-11-16T01:37:01.670Z,5.70
2022-11-16T01:38:04.980Z,4.32
2022-11-16T01:39:08.595Z,3.65
2022-11-16T01:40:12.581Z,5.97
2022-11-16T01:41:15.355Z,5.30
2022-11-16T01:42:19.278Z,5.57
2022-11-16T01:43:23.773Z,4.93
2022-11-16T01:44:58.953Z,5.80
2022-11-16T01:46:01.536Z,5.13
2022-11-16T01:47:06.512Z,5.80
2022-11-16T01:48:09.412Z,6.15
2022-11-16T01:49:13.977Z,6.40
2022-11-16T01:50:18.338Z,7.07
2022-11-16T01:51:20.724Z,6.38
2022-11-16T01:52:28.110Z,7.22
2022-11-16T01:53:29.772Z,5.78
2022-11-16T01:54:34.551Z,6.35
2022-11-16T01:55:38.191Z,5.55
2022-11-16T01:56:40.922Z,8.70
2022-11-16T01:58:20.948Z,5.55
2022-11-16T01:59:22.668Z,5.20
2022-11-16T02:00:25.193Z,6.93
2022-11-16T02:01:27.123Z,4.93
2022-11-16T02:02:29.817Z,6.68
2022-11-16T02:03:31.397Z,5.70
2022-11-16T02:04:33.943Z,6.57
2022-11-16T02:05:42.992Z,6.88
2022-11-16T02:06:59.175Z,5.57
2022-11-16T02:08:36.673Z,5.68
2022-11-16T02:09:55.827Z,6.78
2022-11-16T02:11:07.655Z,4.93
2022-11-16T02:12:20.405Z,6.18
2022-11-16T02:13:31.677Z,6.63
2022-11-16T02:14:48.667Z,5.55
2022-11-16T02:15:53.064Z,5.32
2022-11-16T02:17:02.684Z,5.97
2022-11-16T02:18:16.206Z,6.32
2022-11-16T02:19:48.158Z,6.60
2022-11-16T02:21:07.061Z,6.55
2022-11-16T02:22:22.373Z,11.57
2022-11-16T02:23:57.627Z,6.88
2022-11-16T02:25:03.162Z,5.90
2022-11-16T02:26:20.862Z,5.50
2022-11-16T02:28:08.635Z,7.70
2022-11-16T02:29:21.947Z,7.35
2022-11-16T02:30:24.870Z,6.68
2022-11-16T02:31:29.854Z,7.45
2022-11-16T02:32:35.590Z,8.07
2022-11-16T02:33:39.291Z,6.25
2022-11-16T02:34:45.320Z,9.82
2022-11-16T02:35:48.320Z,9.02
2022-11-16T02:36:52.714Z,6.80
2022-11-16T02:37:57.584Z,7.70
2022-11-16T02:39:02.022Z,6.95
2022-11-16T02:40:08.157Z,8.02
2022-11-16T02:41:12.049Z,7.57
2022-11-16T02:42:18.698Z,8.52
2022-11-16T02:43:23.464Z,8.40
2022-11-16T02:44:29.944Z,8.05
2022-11-16T02:45:33.658Z,7.75
2022-11-16T02:46:38.149Z,7.60
2022-11-16T02:47:41.798Z,7.45
2022-11-16T02:48:48.434Z,8.48
2022-11-16T02:49:54.384Z,8.25
2022-11-16T02:50:57.001Z,7.07
2022-11-16T02:51:59.104Z,6.93
2022-11-16T02:53:01.609Z,6.97
2022-11-16T02:54:12.916Z,7.30
2022-11-16T02:55:15.951Z,8.00
2022-11-16T02:56:18.205Z,7.50
2022-11-16T02:57:38.818Z,8.18
2022-11-16T02:58:40.474Z,8.25
2022-11-16T02:59:47.050Z,9.10
2022-11-16T03:00:52.542Z,7.97
2022-11-16T03:02:00.374Z,9.38
2022-11-16T03:03:18.604Z,8.63
2022-11-16T03:04:23.798Z,6.88
2022-11-16T03:05:32.902Z,8.57
2022-11-16T03:06:36.454Z,7.90
2022-11-16T03:07:43.582Z,9.77
2022-11-16T03:08:48.197Z,7.95
2022-11-16T03:09:51.988Z,7.20
2022-11-16T03:11:14.398Z,7.60
2022-11-16T03:12:20.289Z,6.93
2022-11-16T03:13:23.622Z,8.38
2022-11-16T03:14:29.593Z,8.13
2022-11-16T03:15:34.416Z,7.72
2022-11-16T03:16:39.688Z,8.48
2022-11-16T03:17:43.671Z,7.03
2022-11-16T03:18:47.473Z,8.52
2022-11-16T03:19:52.177Z,7.80
2022-11-16T03:20:58.284Z,8.65
2022-11-16T03:22:05.738Z,7.68
2022-11-16T03:23:10.291Z,9.10
2022-11-16T03:24:11.996Z,7.63
2022-11-16T03:25:17.055Z,7.80
2022-11-16T03:26:22.046Z,7.57
2022-11-16T03:27:28.881Z,8.98
2022-11-16T03:28:34.333Z,8.95
2022-11-16T03:29:42.143Z,9.02
2022-11-16T03:30:50.678Z,8.93
2022-11-16T03:31:55.570Z,8.23
2022-11-16T03:33:01.049Z,9.80
2022-11-16T03:34:08.921Z,7.20
2022-11-16T03:35:15.138Z,7.50
2022-11-16T03:36:22.598Z,9.18
2022-11-16T03:37:25.139Z,8.98
2022-11-16T03:38:28.645Z,8.05
2022-11-16T03:39:31.900Z,8.95
2022-11-16T03:40:36.843Z,9.50
2022-11-16T03:41:40.873Z,10.18
2022-11-16T03:42:44.157Z,8.40
2022-11-16T03:43:47.348Z,8.43
2022-11-16T03:44:50.681Z,9.05
2022-11-16T03:45:53.817Z,9.88
2022-11-16T03:46:56.610Z,10.02
2022-11-16T03:47:58.346Z,8.98
2022-11-16T03:49:02.015Z,8.90
2022-11-16T03:50:04.181Z,8.75
2022-11-16T03:51:09.386Z,8.38
2022-11-16T03:52:11.262Z,8.02
2022-11-16T03:53:13.767Z,9.70
2022-11-16T03:54:15.484Z,7.80
2022-11-16T03:55:18.208Z,9.55
2022-11-16T03:56:20.011Z,9.32
2022-11-16T03:57:22.515Z,9.40
2022-11-16T03:58:24.101Z,7.60
2022-11-16T03:59:26.653Z,8.48
2022-11-16T04:00:28.251Z,9.88
2022-11-16T04:01:32.434Z,8.82
2022-11-16T04:02:34.001Z,9.32
2022-11-16T04:03:36.518Z,9.18
2022-11-16T04:04:56.878Z,10.18
2022-11-16T04:06:17.291Z,10.40
2022-11-16T04:07:37.467Z,9.27
2022-11-16T04:08:57.699Z,9.73
2022-11-16T04:10:18.080Z,8.38
2022-11-16T04:11:39.759Z,11.88
2022-11-16T04:13:01.555Z,9.68
2022-11-16T04:14:21.954Z,11.55
2022-11-16T04:15:42.110Z,11.02
2022-11-16T04:17:03.712Z,9.48
2022-11-16T04:18:23.903Z,10.43
2022-11-16T04:19:44.301Z,10.05
2022-11-16T04:21:04.636Z,11.60
2022-11-16T04:22:29.415Z,7.88
2022-11-16T04:23:49.564Z,9.30
2022-11-16T04:24:56.783Z,10.10
2022-11-16T04:25:58.374Z,10.15
2022-11-16T04:27:21.473Z,8.23
2022-11-16T04:28:27.265Z,9.15
2022-11-16T04:29:29.037Z,10.77
2022-11-16T04:30:52.455Z,12.50
2022-11-16T04:32:14.084Z,9.32
2022-11-16T04:33:34.476Z,9.65
2022-11-16T04:34:50.936Z,13.85
2022-11-16T04:36:10.938Z,10.73
2022-11-16T04:37:34.162Z,11.23
2022-11-16T04:38:36.876Z,9.55
2022-11-16T04:39:38.524Z,10.27
2022-11-16T04:40:41.099Z,11.32
2022-11-16T04:42:01.404Z,12.15
2022-11-16T04:43:03.556Z,10.18
2022-11-16T04:44:06.196Z,10.30
2022-11-16T04:45:27.436Z,10.95
2022-11-16T04:46:47.821Z,10.90
2022-11-16T04:47:51.030Z,10.23
2022-11-16T04:48:53.627Z,11.35
2022-11-16T04:49:55.269Z,9.82
2022-11-16T04:50:57.803Z,11.50
2022-11-16T04:51:59.592Z,9.63
2022-11-16T04:53:02.301Z,10.82
2022-11-16T04:54:03.949Z,10.23
2022-11-16T04:55:07.125Z,9.02
2022-11-16T04:56:08.695Z,7.93
2022-11-16T04:57:11.617Z,10.10
2022-11-16T04:58:13.341Z,11.20
2022-11-16T04:59:15.936Z,10.82
2022-11-16T05:00:18.167Z,13.15
2022-11-16T05:01:41.591Z,12.73
2022-11-16T05:02:43.225Z,9.32
2022-11-16T05:03:47.132Z,11.25
2022-11-16T05:04:48.745Z,10.10
2022-11-16T05:05:51.350Z,9.25
2022-11-16T05:06:52.991Z,9.30
2022-11-16T05:07:55.604Z,10.00
2022-11-16T05:08:57.118Z,9.65
2022-11-16T05:09:59.627Z,8.98
2022-11-16T05:11:01.168Z,10.85
2022-11-16T05:12:04.337Z,10.38
2022-11-16T05:13:05.890Z,11.07
2022-11-16T05:14:09.448Z,11.40
2022-11-16T05:15:13.908Z,10.38
2022-11-16T05:16:16.505Z,9.93
2022-11-16T05:17:19.112Z,9.82
2022-11-16T05:18:21.643Z,10.20
2022-11-16T05:19:48.437Z,12.10
2022-11-16T05:21:04.914Z,11.02
2022-11-16T05:22:06.550Z,10.00
2022-11-16T05:23:29.596Z,12.80
2022-11-16T05:24:34.281Z,11.45
2022-11-16T05:25:37.133Z,10.82
2022-11-16T05:26:39.755Z,10.27
2022-11-16T05:27:41.301Z,10.27
2022-11-16T05:28:43.833Z,8.98
2022-11-16T05:29:45.439Z,11.07
2022-11-16T05:30:47.949Z,11.20
2022-11-16T05:31:49.480Z,8.65
2022-11-16T05:32:52.022Z,9.88
2022-11-16T05:33:53.677Z,11.35
2022-11-16T05:34:57.535Z,11.88
2022-11-16T05:35:59.184Z,10.63
2022-11-16T05:37:01.726Z,9.65
2022-11-16T05:38:03.336Z,10.95
2022-11-16T05:39:06.157Z,9.10
2022-11-16T05:40:08.736Z,12.52
2022-11-16T05:41:11.254Z,10.63
2022-11-16T05:42:13.764Z,9.93
2022-11-16T05:43:15.304Z,10.65
2022-11-16T05:44:18.254Z,9.35
2022-11-16T05:45:21.184Z,10.90
2022-11-16T05:46:24.698Z,9.55
2022-11-16T05:47:27.258Z,10.00
2022-11-16T05:48:28.844Z,9.57
2022-11-16T05:49:31.383Z,10.80
2022-11-16T05:50:41.287Z,11.20
2022-11-16T05:51:46.428Z,10.30
2022-11-16T05:52:47.964Z,9.13
2022-11-16T05:53:50.436Z,12.32
2022-11-16T05:54:51.952Z,11.65
2022-11-16T05:55:54.580Z,10.20
2022-11-16T05:56:57.126Z,10.43
2022-11-16T05:57:58.700Z,11.80
2022-11-16T05:59:01.812Z,10.05
2022-11-16T06:00:05.493Z,11.48
2022-11-16T06:01:07.111Z,12.00
2022-11-16T06:02:09.688Z,11.52
2022-11-16T06:03:11.648Z,12.35
2022-11-16T06:04:15.018Z,11.98
2022-11-16T06:05:16.682Z,10.35
2022-11-16T06:06:20.969Z,11.30
2022-11-16T06:07:23.580Z,11.52
2022-11-16T06:08:25.245Z,10.85
2022-11-16T06:09:27.949Z,10.07
2022-11-16T06:10:29.499Z,10.45
2022-11-16T06:11:35.860Z,9.02
2022-11-16T06:12:37.858Z,10.30
2022-11-16T06:13:40.456Z,10.25
2022-11-16T06:14:42.042Z,11.07
2022-11-16T06:15:50.285Z,10.10
2022-11-16T06:16:52.885Z,9.65
2022-11-16T06:17:54.525Z,9.60
2022-11-16T06:18:57.034Z,9.38
2022-11-16T06:19:58.662Z,9.10
2022-11-16T06:21:01.173Z,9.27
2022-11-16T06:22:04.040Z,10.07
2022-11-16T06:23:06.848Z,10.45
2022-11-16T06:24:11.318Z,9.57
2022-11-16T06:25:14.017Z,10.07
2022-11-16T06:26:16.680Z,9.32
2022-11-16T06:27:19.276Z,11.38
2022-11-16T06:28:20.928Z,10.70
2022-11-16T06:29:23.559Z,9.93
2022-11-16T06:30:25.292Z,10.02
2022-11-16T06:31:27.838Z,8.95
2022-11-16T06:32:29.993Z,9.20
2022-11-16T06:33:33.949Z,9.23
2022-11-16T06:34:35.657Z,7.88
2022-11-16T06:35:38.338Z,11.60
2022-11-16T06:36:39.922Z,11.13
2022-11-16T06:37:43.903Z,10.73
2022-11-16T06:38:46.480Z,11.88
2022-11-16T06:39:48.061Z,10.52
2022-11-16T06:40:51.540Z,9.95
2022-11-16T06:41:54.099Z,12.35
2022-11-16T06:42:57.163Z,11.10
2022-11-16T06:44:00.055Z,10.00
2022-11-16T06:45:01.812Z,8.57
2022-11-16T06:46:04.472Z,9.10
2022-11-16T06:47:07.069Z,11.23
2022-11-16T06:48:08.694Z,8.77
2022-11-16T06:49:12.942Z,13.20
2022-11-16T06:50:14.716Z,11.00
2022-11-16T06:51:17.465Z,12.40
2022-11-16T06:52:19.258Z,9.50
2022-11-16T06:53:28.821Z,8.75
2022-11-16T06:54:30.894Z,11.57
2022-11-16T06:55:33.523Z,9.70
2022-11-16T06:56:36.403Z,9.35
2022-11-16T06:57:38.928Z,9.15
2022-11-16T06:58:42.719Z,11.13
2022-11-16T06:59:45.626Z,10.20
2022-11-16T07:00:47.179Z,12.60
2022-11-16T07:01:50.062Z,9.30
2022-11-16T07:02:51.722Z,7.85
2022-11-16T07:03:54.328Z,9.82
2022-11-16T07:05:00.597Z,9.30
2022-11-16T07:06:07.879Z,9.85
2022-11-16T07:07:09.693Z,7.60
2022-11-16T07:08:12.356Z,9.43
2022-11-16T07:09:15.421Z,7.80
2022-11-16T07:10:17.970Z,9.00
2022-11-16T07:11:20.251Z,7.22
2022-11-16T07:12:22.759Z,7.30
2022-11-16T07:13:25.307Z,8.82
2022-11-16T07:14:26.906Z,7.82
2022-11-16T07:15:29.465Z,7.25
2022-11-16T07:16:31.120Z,6.90
2022-11-16T07:17:34.841Z,7.35
2022-11-16T07:18:38.417Z,7.10
2022-11-16T07:19:40.098Z,8.10
2022-11-16T07:20:42.633Z,7.88
2022-11-16T07:21:44.806Z,8.52
2022-11-16T07:22:47.359Z,7.28
2022-11-16T07:23:49.013Z,6.40
2022-11-16T07:24:52.903Z,6.13
2022-11-16T07:25:54.418Z,5.28
2022-11-16T07:26:57.307Z,7.32
2022-11-16T07:27:59.980Z,8.13
2022-11-16T07:29:02.023Z,6.47
2022-11-16T07:30:05.649Z,6.65
2022-11-16T07:31:10.043Z,6.25
2022-11-16T07:32:14.283Z,4.75
2022-11-16T07:33:17.122Z,6.50
2022-11-16T07:34:18.812Z,5.10
2022-11-16T07:35:21.387Z,6.60
2022-11-16T07:36:23.118Z,5.25
2022-11-16T07:37:25.629Z,4.70
2022-11-16T07:38:28.178Z,5.25
2022-11-16T07:39:29.779Z,6.53
2022-11-16T07:40:33.627Z,3.60
2022-11-16T07:41:35.335Z,6.25
2022-11-16T07:42:37.841Z,4.70
2022-11-16T07:43:39.859Z,5.60
2022-11-16T07:44:42.336Z,5.10
2022-11-16T07:45:45.096Z,4.20
2022-11-16T07:46:48.176Z,5.25
2022-11-16T07:47:53.250Z,4.47
2022-11-16T07:48:54.781Z,5.47
2022-11-16T07:49:57.328Z,4.38
2022-11-16T07:51:01.665Z,6.63
2022-11-16T07:52:04.257Z,4.75
2022-11-16T07:53:05.782Z,5.88
2022-11-16T07:54:08.378Z,5.10
2022-11-16T07:55:11.286Z,5.78
2022-11-16T07:56:15.229Z,5.70
2022-11-16T07:57:18.081Z,4.80
2022-11-16T07:58:19.715Z,3.90
2022-11-16T07:59:22.306Z,5.07
2022-11-16T08:00:24.913Z,3.72
2022-11-16T08:01:26.546Z,8.63
2022-11-16T08:02:29.184Z,5.40
2022-11-16T08:03:30.862Z,5.35
2022-11-16T08:04:33.531Z,6.38
2022-11-16T08:05:36.056Z,4.22
2022-11-16T08:06:37.663Z,4.47
2022-11-16T08:07:40.219Z,7.25
2022-11-16T08:08:41.867Z,4.80
2022-11-16T08:09:44.869Z,5.72
2022-11-16T08:10:46.687Z,6.70
2022-11-16T08:11:51.320Z,4.80
2022-11-16T08:12:54.732Z,4.60
2022-11-16T08:13:57.018Z,3.85
2022-11-16T08:14:59.534Z,4.95
2022-11-16T08:16:02.014Z,3.83
2022-11-16T08:17:04.948Z,4.80
2022-11-16T08:18:06.513Z,4.38
2022-11-16T08:19:09.038Z,5.88
2022-11-16T08:20:12.501Z,6.45
2022-11-16T08:21:15.404Z,4.88
2022-11-16T08:22:18.039Z,3.97
2022-11-16T08:23:19.666Z,5.78
2022-11-16T08:24:22.327Z,5.05
2022-11-16T08:25:23.869Z,4.68
2022-11-16T08:26:27.007Z,4.65
2022-11-16T08:27:32.129Z,5.53
2022-11-16T08:28:34.161Z,5.82
2022-11-16T08:29:37.029Z,8.13
2022-11-16T08:30:39.336Z,6.35
2022-11-16T08:31:41.971Z,3.58
2022-11-16T08:32:45.392Z,6.18
2022-11-16T08:33:48.201Z,5.53
2022-11-16T08:34:50.819Z,7.13
2022-11-16T08:35:52.536Z,3.38
2022-11-16T08:36:55.083Z,3.40
2022-11-16T08:37:57.058Z,4.80
2022-11-16T08:38:59.608Z,6.18
2022-11-16T08:40:03.203Z,3.92
2022-11-16T08:41:05.085Z,6.45
2022-11-16T08:42:07.710Z,5.25
2022-11-16T08:43:11.298Z,5.50
2022-11-16T08:44:15.326Z,6.20
2022-11-16T08:45:17.718Z,8.20
2022-11-16T08:46:20.603Z,5.18
2022-11-16T08:47:23.638Z,5.50
2022-11-16T08:48:25.308Z,6.07
2022-11-16T08:49:28.923Z,3.72
2022-11-16T08:50:33.435Z,4.63
2022-11-16T08:51:42.340Z,5.10
2022-11-16T08:52:44.026Z,6.80
2022-11-16T08:53:48.403Z,5.40
2022-11-16T08:54:50.350Z,7.78
2022-11-16T08:55:53.037Z,5.43
2022-11-16T08:56:55.640Z,4.55
2022-11-16T08:57:57.230Z,5.45
2022-11-16T08:59:01.107Z,8.30
2022-11-16T09:00:03.610Z,5.30
2022-11-16T09:01:11.807Z,4.80
2022-11-16T09:02:13.713Z,5.00
2022-11-16T09:03:16.347Z,8.10
2022-11-16T09:04:18.703Z,7.47
2022-11-16T09:05:21.399Z,4.88
2022-11-16T09:06:25.391Z,5.05
2022-11-16T09:07:27.073Z,5.43
2022-11-16T09:08:29.737Z,9.18
2022-11-16T09:09:31.327Z,5.40
2022-11-16T09:10:33.872Z,8.10
2022-11-16T09:11:35.503Z,4.88
2022-11-16T09:12:39.026Z,8.63
2022-11-16T09:13:40.587Z,7.07
2022-11-16T09:14:44.493Z,6.95
2022-11-16T09:15:46.052Z,9.32
2022-11-16T09:16:48.716Z,7.10
2022-11-16T09:17:54.765Z,7.43
2022-11-16T09:18:57.436Z,7.40
2022-11-16T09:19:59.017Z,8.48
2022-11-16T09:21:01.591Z,7.55
2022-11-16T09:22:04.952Z,7.18
2022-11-16T09:23:06.511Z,7.32
2022-11-16T09:24:10.081Z,7.70
2022-11-16T09:25:12.163Z,6.85
2022-11-16T09:26:15.111Z,9.52
2022-11-16T09:27:17.898Z,8.82
2022-11-16T09:28:20.577Z,10.00
2022-11-16T09:29:23.278Z,9.00
2022-11-16T09:30:26.252Z,8.80
2022-11-16T09:31:29.753Z,8.90
2022-11-16T09:32:31.321Z,6.88
2022-11-16T09:33:35.038Z,6.55
2022-11-16T09:34:36.836Z,9.00
2022-11-16T09:35:39.704Z,6.32
2022-11-16T09:36:41.231Z,9.90
2022-11-16T09:37:43.830Z,6.22
2022-11-16T09:39:17.805Z,7.15
2022-11-16T09:40:11.991Z,6.78
2022-11-16T09:41:27.541Z,9.65
2022-11-16T09:42:39.120Z,8.20
2022-11-16T09:43:47.490Z,8.18
2022-11-16T09:45:04.433Z,6.60
2022-11-16T09:46:18.877Z,5.65
2022-11-16T09:47:22.002Z,8.32
2022-11-16T09:48:25.312Z,6.88
2022-11-16T09:49:43.775Z,6.15
2022-11-16T09:50:48.399Z,5.75
2022-11-16T09:51:53.057Z,9.73
2022-11-16T09:52:57.882Z,5.75
2022-11-16T09:54:04.269Z,7.10
2022-11-16T09:55:22.860Z,6.80
2022-11-16T09:56:26.260Z,6.03
2022-11-16T09:57:31.657Z,7.53
2022-11-16T09:58:40.958Z,12.77
2022-11-16T09:59:46.429Z,6.03
2022-11-16T10:00:53.284Z,5.47
2022-11-16T10:01:59.323Z,5.05
2022-11-16T10:03:04.647Z,3.67
2022-11-16T10:04:11.098Z,5.35
2022-11-16T10:05:18.101Z,7.25
2022-11-16T10:06:23.063Z,9.02
2022-11-16T10:07:27.463Z,5.97
2022-11-16T10:08:41.288Z,5.38
2022-11-16T10:09:44.830Z,2.65
2022-11-16T10:10:53.515Z,2.97
2022-11-16T10:12:09.738Z,5.32
2022-11-16T10:13:23.810Z,3.70
2022-11-16T10:14:48.170Z,3.47
2022-11-16T10:15:57.809Z,4.30
2022-11-16T10:17:05.384Z,3.78
2022-11-16T10:18:18.379Z,5.38
2022-11-16T10:19:26.649Z,4.70
2022-11-16T10:20:56.584Z,3.92
2022-11-16T10:22:02.985Z,5.63
2022-11-16T10:23:10.861Z,2.20
2022-11-16T10:24:26.041Z,5.28
2022-11-16T10:25:33.236Z,5.05
2022-11-16T10:26:39.741Z,6.35
2022-11-16T10:27:52.888Z,3.08
2022-11-16T10:29:10.531Z,4.60
2022-11-16T10:30:15.292Z,2.17
2022-11-16T10:31:21.855Z,4.80
2022-11-16T10:32:28.720Z,5.72
2022-11-16T10:33:36.147Z,6.97
2022-11-16T10:34:44.528Z,5.90
2022-11-16T10:35:49.081Z,2.70
2022-11-16T10:36:51.076Z,3.75
2022-11-16T10:37:53.797Z,3.97
2022-11-16T10:38:56.135Z,5.00
2022-11-16T10:39:59.147Z,2.00
2022-11-16T10:41:04.259Z,3.25
2022-11-16T10:42:12.400Z,9.70
2022-11-16T10:43:16.361Z,3.45
2022-11-16T10:44:22.080Z,6.32
2022-11-16T10:45:26.453Z,4.38
2022-11-16T10:46:33.541Z,2.30
2022-11-16T10:47:42.506Z,5.15
2022-11-16T10:48:51.350Z,6.28
2022-11-16T10:49:57.095Z,6.82
2022-11-16T10:50:59.675Z,4.13
2022-11-16T10:52:01.247Z,5.10
2022-11-16T10:53:03.798Z,4.93
2022-11-16T10:54:13.516Z,3.97
2022-11-16T10:55:16.091Z,6.10
2022-11-16T10:56:23.041Z,3.95
2022-11-16T10:57:26.508Z,3.75
2022-11-16T10:58:55.201Z,4.47
2022-11-16T10:59:59.013Z,4.63
2022-11-16T11:01:00.640Z,6.80
2022-11-16T11:02:27.519Z,6.25
2022-11-16T11:03:33.097Z,3.58
2022-11-16T11:04:35.041Z,5.88
2022-11-16T11:05:37.858Z,4.85
2022-11-16T11:06:40.140Z,4.07
2022-11-16T11:07:45.529Z,5.60
2022-11-16T11:08:47.089Z,3.75
2022-11-16T11:09:53.280Z,11.60
2022-11-16T11:11:24.299Z,5.70
2022-11-16T11:12:38.576Z,4.43
2022-11-16T11:13:41.169Z,3.67
2022-11-16T11:14:42.784Z,4.22
2022-11-16T11:15:45.675Z,4.53
2022-11-16T11:16:53.494Z,6.93
2022-11-16T11:18:17.537Z,3.45
2022-11-16T11:19:27.390Z,4.22
2022-11-16T11:20:29.984Z,7.90
2022-11-16T11:21:31.604Z,5.80
2022-11-16T11:22:35.842Z,4.18
2022-11-16T11:23:47.777Z,9.23
2022-11-16T11:24:49.671Z,3.78
2022-11-16T11:25:56.919Z,2.67
2022-11-16T11:26:59.334Z,2.70
2022-11-16T11:28:07.135Z,4.75
2022-11-16T11:29:22.005Z,3.97
2022-11-16T11:30:24.941Z,4.72
2022-11-16T11:31:33.590Z,6.22
2022-11-16T11:32:40.661Z,3.10
2022-11-16T11:33:48.324Z,3.35
2022-11-16T11:34:54.438Z,5.22
2022-11-16T11:36:03.210Z,3.55
2022-11-16T11:37:06.956Z,2.20
2022-11-16T11:38:15.811Z,7.28
2022-11-16T11:39:30.641Z,5.00
2022-11-16T11:40:33.352Z,4.47
2022-11-16T11:41:36.539Z,7.72
2022-11-16T11:42:41.640Z,4.30
2022-11-16T11:43:44.301Z,4.15
2022-11-16T11:44:51.879Z,3.40
2022-11-16T11:45:58.070Z,5.60
2022-11-16T11:47:56.085Z,5.55
2022-11-16T11:48:43.598Z,6.20
2022-11-16T11:49:49.992Z,3.03
2022-11-16T11:50:56.360Z,3.88
2022-11-16T11:52:01.506Z,3.35
2022-11-16T11:53:08.185Z,7.60
2022-11-16T11:54:17.943Z,7.13
2022-11-16T11:55:19.675Z,3.20
2022-11-16T11:56:22.334Z,6.97
2022-11-16T11:57:25.808Z,7.70
2022-11-16T11:58:32.195Z,3.83
2022-11-16T11:59:34.793Z,6.22
2022-11-16T12:00:41.244Z,4.45
2022-11-16T12:02:08.737Z,6.82
2022-11-16T12:03:35.097Z,3.67
2022-11-16T12:05:05.914Z,5.03
2022-11-16T12:06:10.902Z,3.97
2022-11-16T12:07:21.804Z,7.03
2022-11-16T12:08:39.467Z,3.47
2022-11-16T12:09:47.944Z,3.92
2022-11-16T12:10:52.130Z,2.03
2022-11-16T12:12:03.406Z,9.25
2022-11-16T12:13:21.853Z,6.43
2022-11-16T12:14:31.015Z,3.88
2022-11-16T12:15:42.144Z,3.80
2022-11-16T12:16:48.143Z,3.00
2022-11-16T12:17:56.197Z,2.53
2022-11-16T12:19:22.256Z,1.60
2022-11-16T12:20:33.562Z,3.50
2022-11-16T12:21:44.843Z,4.53
2022-11-16T12:23:03.728Z,3.00
2022-11-16T12:24:21.461Z,2.05
2022-11-16T12:25:26.710Z,3.63
2022-11-16T12:26:35.072Z,4.28
2022-11-16T12:27:42.912Z,2.30
2022-11-16T12:28:52.997Z,2.95
2022-11-16T12:30:00.600Z,2.33
2022-11-16T12:31:25.549Z,6.07
2022-11-16T12:32:41.430Z,3.17
2022-11-16T12:33:48.904Z,3.55
2022-11-16T12:35:09.747Z,2.47
2022-11-16T12:36:30.672Z,6.70
2022-11-16T12:37:39.333Z,1.77
2022-11-16T12:38:54.943Z,5.13
2022-11-16T12:40:14.452Z,2.15
2022-11-16T12:41:47.553Z,1.85
2022-11-16T12:42:54.264Z,3.95
2022-11-16T12:43:58.666Z,3.05
2022-11-16T12:45:15.686Z,2.75
2022-11-16T12:46:25.101Z,1.27
2022-11-16T12:47:33.225Z,1.55
2022-11-16T12:48:50.382Z,1.17
2022-11-16T12:50:02.074Z,3.90
2022-11-16T12:51:09.729Z,6.72
2022-11-16T12:52:25.277Z,1.58
2022-11-16T12:53:40.626Z,2.40
2022-11-16T12:55:25.227Z,8.20
2022-11-16T12:56:34.442Z,3.47
2022-11-16T12:57:43.661Z,2.72
2022-11-16T12:58:59.853Z,3.90
2022-11-16T13:00:08.156Z,2.50
2022-11-16T13:01:13.906Z,1.83
2022-11-16T13:02:26.108Z,3.25
2022-11-16T13:03:31.218Z,7.13
2022-11-16T13:04:35.222Z,2.42
2022-11-16T13:05:45.392Z,3.25
2022-11-16T13:06:51.321Z,2.33
2022-11-16T13:07:55.859Z,1.90
2022-11-16T13:09:04.884Z,3.65
2022-11-16T13:10:14.277Z,2.17
2022-11-16T13:11:19.867Z,1.95
2022-11-16T13:12:24.280Z,3.78
2022-11-16T13:13:36.240Z,1.65
2022-11-16T13:14:54.844Z,3.58
2022-11-16T13:15:58.611Z,1.55
2022-11-16T13:17:02.122Z,2.38
2022-11-16T13:18:05.942Z,5.13
2022-11-16T13:19:12.942Z,2.25
2022-11-16T13:20:28.923Z,2.70
2022-11-16T13:21:37.338Z,3.30
2022-11-16T13:22:39.696Z,5.03
2022-11-16T13:23:50.404Z,5.88
2022-11-16T13:24:58.578Z,4.22
2022-11-16T13:26:02.086Z,3.22
2022-11-16T13:27:17.228Z,3.30
2022-11-16T13:28:30.643Z,1.27
2022-11-16T13:29:39.797Z,4.15
2022-11-16T13:30:47.951Z,1.67
2022-11-16T13:31:54.505Z,2.33
2022-11-16T13:33:04.493Z,3.05
2022-11-16T13:34:08.857Z,2.50
2022-11-16T13:35:14.145Z,5.95
2022-11-16T13:36:45.434Z,1.63
2022-11-16T13:37:49.288Z,1.90
2022-11-16T13:38:52.262Z,3.42
2022-11-16T13:40:21.789Z,1.42
2022-11-16T13:41:27.623Z,1.50
2022-11-16T13:42:31.009Z,6.88
2022-11-16T13:43:33.624Z,2.63
2022-11-16T13:44:35.493Z,3.10
2022-11-16T13:45:41.105Z,1.70
2022-11-16T13:47:01.052Z,3.97
2022-11-16T13:48:05.531Z,2.95
2022-11-16T13:49:30.834Z,2.03
2022-11-16T13:50:37.501Z,5.22
2022-11-16T13:51:40.602Z,2.20
2022-11-16T13:53:23.473Z,1.20
2022-11-16T13:55:31.461Z,4.10
2022-11-16T13:56:47.032Z,1.98
2022-11-16T13:57:52.303Z,5.68
2022-11-16T13:58:55.990Z,3.33
2022-11-16T14:00:11.377Z,1.65
2022-11-16T14:01:14.334Z,3.53
2022-11-16T14:02:36.071Z,2.42
2022-11-16T14:03:38.682Z,2.28
2022-11-16T14:04:56.867Z,2.53
2022-11-16T14:05:58.493Z,3.05
2022-11-16T14:07:01.290Z,2.63
2022-11-16T14:08:51.746Z,6.18
2022-11-16T14:09:53.348Z,3.22
2022-11-16T14:11:02.193Z,2.13
2022-11-16T14:12:38.029Z,6.45
2022-11-16T14:13:42.182Z,2.70
2022-11-16T14:15:06.398Z,4.45
2022-11-16T14:16:44.105Z,4.13
2022-11-16T14:17:51.117Z,3.47
2022-11-16T14:18:55.307Z,2.40
2022-11-16T14:19:56.987Z,3.45
2022-11-16T14:21:00.198Z,3.53
2022-11-16T14:22:06.446Z,3.25
2022-11-16T14:23:46.416Z,3.95
2022-11-16T14:24:52.584Z,1.40
2022-11-16T14:26:03.413Z,1.80
2022-11-16T14:27:09.403Z,2.28
2022-11-16T14:28:38.050Z,1.83
2022-11-16T14:29:50.173Z,1.52
2022-11-16T14:30:59.532Z,3.05
2022-11-16T14:32:03.478Z,4.50
2022-11-16T14:33:05.154Z,4.22
2022-11-16T14:34:17.083Z,2.97
2022-11-16T14:35:30.165Z,2.80
2022-11-16T14:36:38.154Z,3.15
2022-11-16T14:37:41.701Z,2.45
2022-11-16T14:38:44.783Z,1.73
2022-11-16T14:39:47.340Z,2.13
2022-11-16T14:40:56.235Z,1.58
2022-11-16T14:42:04.434Z,9.93